Terminal Aerodrome Forecast
Issued by NWS

Home | Current Version | Previous Version | Text Only | Print | Product List | Glossary On
Versions: 1 2 3 4 5 6 7 8 9 10 11 12 13 14 15 16 17 18 19 20 21 22 23 24 25 26 27 28 29 30 31 32 33 34 35 36 37 38 39 40 41 42
000
FTUS43 KGRB 221134
TAFRHI
TAF
KRHI 221134Z 2212/2312 VRB03KT P6SM SCT110
     FM222200 11007KT P6SM OVC060
     FM230300 12008KT 4SM -SN OVC040
     FM230500 12008KT 3SM -SN BR OVC011
     FM230800 13007KT 1SM -SN BR OVC006
     FM231000 14006KT 3/4SM -SN BR OVC003=

USA.gov is the U.S. government's official web portal to all federal, state and local government web resources and services.